Time;durP1;ratioP1;P1;durP2;ratioP2;P2;SDS_P1;SDS_P2;PMS_P1;PMS_P2;Temp;Humidity;BMP_temperature;BMP_pressure;BME280_temperature;BME280_humidity;BME280_pressure;Samples;Min_cycle;Max_cycle;Signal;HPM_P1;HPM_P2
2022/03/08 00:00:46;;;;;;;19.23;14.13;;;;;;;-1.04;48.04;99425.66;4160347;28;20263;-64
2022/03/08 00:02:48;;;;;;;17.50;15.00;;;;;;;-0.74;47.95;99412.50;4155909;28;20742;-64
2022/03/08 00:04:50;;;;;;;18.30;14.30;;;;;;;0.87;45.91;99361.03;4159485;28;20253;-64
2022/03/08 00:06:52;;;;;;;17.93;14.47;;;;;;;1.07;45.57;99367.53;4157551;28;20261;-64
2022/03/08 00:08:53;;;;;;;19.20;14.53;;;;;;;0.60;45.75;99372.50;4158900;28;20236;-64
2022/03/08 00:10:55;;;;;;;19.13;15.80;;;;;;;0.05;47.00;99381.41;4159970;28;20267;-64
2022/03/08 00:12:57;;;;;;;19.40;15.13;;;;;;;0.99;45.62;99355.00;4160360;28;20591;-65
2022/03/08 00:14:59;;;;;;;18.67;14.83;;;;;;;1.24;44.73;99374.22;4159669;28;20229;-65
2022/03/08 00:17:03;;;;;;;18.30;15.37;;;;;;;1.39;44.24;99369.66;4159942;28;20237;-64
2022/03/08 00:19:05;;;;;;;19.80;16.23;;;;;;;1.52;44.17;99362.63;4160053;28;20446;-64
2022/03/08 00:21:07;;;;;;;18.70;14.60;;;;;;;1.57;43.79;99370.97;4159447;28;20256;-64
2022/03/08 00:23:09;;;;;;;18.43;14.60;;;;;;;1.58;43.96;99375.28;4157127;28;20311;-64
2022/03/08 00:25:12;;;;;;;21.03;15.37;;;;;;;0.40;45.61;99405.22;4159267;28;20237;-64
2022/03/08 00:27:13;;;;;;;18.67;14.43;;;;;;;0.62;45.67;99377.63;4159228;28;20255;-65
2022/03/08 00:29:15;;;;;;;21.47;15.17;;;;;;;1.27;44.89;99372.25;4159673;28;20324;-65
2022/03/08 00:31:17;;;;;;;17.33;15.27;;;;;;;0.80;44.97;99396.44;4159543;28;20316;-64
2022/03/08 00:33:20;;;;;;;19.37;15.30;;;;;;;0.46;45.44;99404.78;4158629;28;20490;-65
2022/03/08 00:35:23;;;;;;;18.80;14.23;;;;;;;0.94;45.00;99394.56;4159014;28;20288;-65
2022/03/08 00:37:25;;;;;;;19.03;14.40;;;;;;;0.29;46.50;99386.78;4159490;28;20267;-65
2022/03/08 00:39:26;;;;;;;18.33;15.13;;;;;;;0.39;46.34;99393.06;4158727;28;20256;-65
2022/03/08 00:41:28;;;;;;;17.73;15.50;;;;;;;0.59;46.06;99376.84;4156727;28;20220;-65
2022/03/08 00:43:29;;;;;;;18.43;14.40;;;;;;;0.73;45.82;99380.31;4159152;28;20263;-64
2022/03/08 00:45:31;;;;;;;17.97;14.80;;;;;;;0.78;45.98;99373.84;4158569;28;20317;-65
2022/03/08 00:47:39;;;;;;;18.87;14.53;;;;;;;0.47;45.81;99389.94;4159686;28;20256;-65
2022/03/08 00:49:41;;;;;;;18.03;14.37;;;;;;;0.64;45.93;99384.41;4159617;28;20239;-65
2022/03/08 00:51:42;;;;;;;17.40;13.73;;;;;;;0.63;45.77;99385.34;4158816;28;20255;-65
2022/03/08 00:53:44;;;;;;;21.53;15.60;;;;;;;0.83;45.73;99372.69;4159155;28;20258;-64
2022/03/08 00:55:46;;;;;;;18.23;13.90;;;;;;;0.72;45.65;99376.03;4159234;28;20740;-64
2022/03/08 00:57:48;;;;;;;17.97;15.17;;;;;;;0.52;46.20;99374.78;4156901;28;20307;-65
2022/03/08 00:59:50;;;;;;;17.43;13.77;;;;;;;0.24;46.39;99379.22;4157650;28;20603;-65
2022/03/08 01:01:52;;;;;;;18.53;13.83;;;;;;;0.00;47.28;99372.06;4155557;28;20276;-65
2022/03/08 01:03:54;;;;;;;19.53;14.70;;;;;;;0.34;46.58;99371.63;4158038;28;20269;-64
2022/03/08 01:05:56;;;;;;;18.43;14.77;;;;;;;-0.21;47.29;99379.53;4158871;28;20267;-64
2022/03/08 01:07:59;;;;;;;21.13;15.00;;;;;;;-0.48;48.24;99378.69;4158935;28;20236;-65
2022/03/08 01:10:02;;;;;;;18.23;13.27;;;;;;;0.10;47.37;99356.63;4155900;28;20775;-64
2022/03/08 01:12:04;;;;;;;18.80;14.83;;;;;;;0.10;47.54;99361.00;4158475;28;20316;-64
2022/03/08 01:14:07;;;;;;;17.70;14.07;;;;;;;0.17;46.81;99352.66;4158872;28;20334;-64
2022/03/08 01:16:09;;;;;;;18.70;15.47;;;;;;;0.04;47.17;99354.41;4158187;28;20303;-64
2022/03/08 01:18:11;;;;;;;18.33;14.00;;;;;;;-0.79;48.47;99380.59;4156376;28;20233;-64
2022/03/08 01:20:14;;;;;;;16.73;13.23;;;;;;;-0.97;48.27;99382.56;4158890;28;20225;-64
2022/03/08 01:22:16;;;;;;;17.37;14.13;;;;;;;-1.03;49.52;99367.31;4158398;28;20224;-65
2022/03/08 01:24:17;;;;;;;17.13;15.00;;;;;;;-1.31;49.64;99367.22;4158626;28;20319;-65
2022/03/08 01:26:19;;;;;;;17.83;13.70;;;;;;;-0.09;47.37;99333.47;4158473;28;20319;-64
2022/03/08 01:28:21;;;;;;;19.13;14.67;;;;;;;0.21;46.42;99335.84;4158348;28;20322;-64
2022/03/08 01:30:24;;;;;;;18.03;14.50;;;;;;;-0.39;47.87;99341.53;4158239;28;20799;-64
2022/03/08 01:32:26;;;;;;;20.70;14.40;;;;;;;-0.34;47.16;99355.97;4158704;28;20225;-64
2022/03/08 01:34:28;;;;;;;20.63;14.03;;;;;;;-0.48;48.08;99348.19;4157743;28;20267;-64
2022/03/08 01:36:29;;;;;;;17.03;14.07;;;;;;;-0.27;47.95;99342.50;4158390;28;20263;-65
2022/03/08 01:38:31;;;;;;;18.70;14.47;;;;;;;-0.37;47.15;99361.38;4156039;28;20712;-65
2022/03/08 01:40:33;;;;;;;20.10;13.90;;;;;;;-0.26;47.17;99346.78;4157537;28;20260;-64
2022/03/08 01:42:34;;;;;;;18.07;14.47;;;;;;;0.18;46.59;99335.19;4158909;28;20443;-65
2022/03/08 01:44:39;;;;;;;16.83;13.63;;;;;;;-0.02;47.12;99333.91;4158356;28;20256;-64
2022/03/08 01:46:41;;;;;;;17.10;14.20;;;;;;;-0.56;47.46;99363.50;4157240;28;20680;-64
2022/03/08 01:48:43;;;;;;;17.07;14.63;;;;;;;-0.54;48.32;99341.56;4158257;28;20339;-65
2022/03/08 01:50:47;;;;;;;16.73;13.93;;;;;;;0.10;47.12;99329.66;4158650;28;20266;-65
2022/03/08 01:52:49;;;;;;;16.03;13.40;;;;;;;-0.84;47.13;99380.06;4157989;28;20626;-64
2022/03/08 01:54:51;;;;;;;17.50;14.00;;;;;;;0.46;46.21;99320.25;4157955;28;20282;-64
2022/03/08 01:56:53;;;;;;;18.73;15.03;;;;;;;-0.17;46.80;99333.97;4157983;28;20307;-64
2022/03/08 01:58:55;;;;;;;19.27;14.60;;;;;;;-0.40;47.60;99350.28;4158032;28;20268;-65
2022/03/08 02:00:56;;;;;;;16.67;14.20;;;;;;;0.12;46.80;99338.22;4157914;28;20382;-65
2022/03/08 02:02:59;;;;;;;17.50;14.87;;;;;;;0.73;45.68;99323.59;4157679;28;20757;-64
2022/03/08 02:05:02;;;;;;;18.43;14.13;;;;;;;0.42;45.93;99327.47;4157550;28;20237;-64
2022/03/08 02:07:04;;;;;;;15.97;13.63;;;;;;;-1.04;48.53;99365.63;4157838;28;20271;-64
2022/03/08 02:09:06;;;;;;;20.93;14.10;;;;;;;0.21;46.82;99314.91;4155745;28;20252;-64
2022/03/08 02:11:08;;;;;;;21.53;14.60;;;;;;;-0.31;47.41;99339.25;4157484;28;20315;-64
2022/03/08 02:13:09;;;;;;;17.77;13.73;;;;;;;-0.23;47.94;99321.31;4157434;28;20726;-65
2022/03/08 02:15:17;;;;;;;18.70;14.20;;;;;;;-0.03;47.80;99317.38;4157768;28;20260;-65
2022/03/08 02:17:18;;;;;;;18.03;13.83;;;;;;;-0.12;47.83;99325.84;4157804;28;20311;-65
2022/03/08 02:19:20;;;;;;;19.13;13.80;;;;;;;0.26;47.37;99303.28;4157602;28;20268;-65
2022/03/08 02:21:22;;;;;;;17.90;13.73;;;;;;;-0.27;47.60;99332.06;4157901;28;20589;-65
2022/03/08 02:23:24;;;;;;;17.70;13.70;;;;;;;0.09;46.93;99317.50;4154512;28;20878;-64
2022/03/08 02:25:25;;;;;;;19.47;13.53;;;;;;;0.10;46.54;99317.41;4157353;28;20266;-64
2022/03/08 02:27:27;;;;;;;16.07;13.07;;;;;;;0.03;46.68;99316.16;4157739;28;20323;-64
2022/03/08 02:29:29;;;;;;;20.60;14.47;;;;;;;0.35;46.72;99300.06;4157462;28;20327;-64
2022/03/08 02:31:31;;;;;;;18.73;13.70;;;;;;;-0.28;47.79;99309.47;4157648;28;20442;-65
2022/03/08 02:33:33;;;;;;;15.57;13.03;;;;;;;-0.11;47.16;99306.59;4157575;28;20545;-65
2022/03/08 02:35:35;;;;;;;16.90;13.30;;;;;;;0.06;47.00;99302.88;4154752;28;20469;-64
2022/03/08 02:37:42;;;;;;;16.23;13.60;;;;;;;0.14;46.70;99307.56;4156786;28;20229;-65
2022/03/08 02:39:44;;;;;;;16.53;13.83;;;;;;;-0.06;46.68;99317.59;4157591;28;20476;-64
2022/03/08 02:41:45;;;;;;;17.57;13.63;;;;;;;-0.13;47.18;99318.09;4157285;28;20756;-64
2022/03/08 02:43:47;;;;;;;17.10;13.73;;;;;;;0.16;46.93;99296.09;4157072;28;20342;-64
2022/03/08 02:45:49;;;;;;;15.70;13.13;;;;;;;-0.49;48.18;99301.28;4157735;28;20275;-64
2022/03/08 02:47:50;;;;;;;15.90;13.10;;;;;;;-0.21;48.20;99295.91;4157427;28;20756;-64
2022/03/08 02:49:52;;;;;;;17.13;13.33;;;;;;;-0.25;48.26;99288.38;4156440;28;20268;-64
2022/03/08 02:51:56;;;;;;;15.97;12.73;;;;;;;-0.47;48.46;99296.78;4156861;28;20234;-64
2022/03/08 02:53:57;;;;;;;25.07;14.57;;;;;;;-0.50;48.31;99308.25;4157196;28;20231;-64
2022/03/08 02:55:59;;;;;;;19.47;13.67;;;;;;;-0.62;48.56;99296.81;4157084;28;20687;-64
2022/03/08 02:58:04;;;;;;;14.80;11.90;;;;;;;-0.95;49.42;99305.88;4155847;28;20674;-64
2022/03/08 03:00:08;;;;;;;16.80;12.47;;;;;;;-0.97;49.62;99299.06;4156734;28;20267;-64
2022/03/08 03:02:09;;;;;;;19.77;12.10;;;;;;;-0.85;49.83;99284.41;4157187;28;20306;-64
2022/03/08 03:04:11;;;;;;;17.40;12.93;;;;;;;-1.17;50.00;99295.06;4154514;28;20235;-64
2022/03/08 03:06:13;;;;;;;18.80;12.93;;;;;;;-0.77;49.71;99271.69;4156848;28;20340;-65
2022/03/08 03:08:15;;;;;;;16.67;12.77;;;;;;;-0.29;48.58;99268.63;4157110;28;20320;-64
2022/03/08 03:10:18;;;;;;;15.27;12.40;;;;;;;-1.05;49.31;99302.16;4155987;28;20268;-64
2022/03/08 03:12:20;;;;;;;14.07;11.97;;;;;;;-0.72;49.61;99277.47;4157029;28;20255;-64
2022/03/08 03:14:22;;;;;;;15.40;11.63;;;;;;;-0.21;48.63;99266.31;4156665;28;20267;-64
2022/03/08 03:16:23;;;;;;;16.63;12.93;;;;;;;-0.55;48.46;99281.59;4157049;28;20595;-64
2022/03/08 03:18:25;;;;;;;14.30;11.60;;;;;;;-0.22;48.80;99262.88;4157242;28;20604;-64
2022/03/08 03:20:28;;;;;;;15.17;12.73;;;;;;;-0.16;48.22;99269.50;4156562;28;20629;-64
2022/03/08 03:22:30;;;;;;;16.13;12.83;;;;;;;-0.74;49.43;99269.72;4157611;28;20296;-64
2022/03/08 03:24:31;;;;;;;17.20;12.83;;;;;;;-0.65;49.65;99250.03;4154106;28;20342;-64
2022/03/08 03:26:33;;;;;;;15.37;12.57;;;;;;;-0.25;48.93;99238.72;4154611;28;20314;-64
2022/03/08 03:28:35;;;;;;;16.40;12.33;;;;;;;-0.13;48.98;99250.13;4156903;28;20713;-64
2022/03/08 03:30:36;;;;;;;15.53;12.07;;;;;;;-0.48;49.85;99253.31;4154314;28;20469;-64
2022/03/08 03:32:39;;;;;;;17.97;12.40;;;;;;;-0.32;48.79;99269.66;4156966;28;20233;-64
2022/03/08 03:34:40;;;;;;;14.83;12.47;;;;;;;-0.40;49.34;99257.13;4157028;28;20263;-64
2022/03/08 03:36:42;;;;;;;17.47;12.27;;;;;;;-0.36;49.01;99252.53;4156727;28;20259;-64
2022/03/08 03:38:43;;;;;;;15.03;13.17;;;;;;;-0.57;49.36;99254.75;4157125;28;20247;-64
2022/03/08 03:40:45;;;;;;;17.47;12.13;;;;;;;-0.62;49.41;99264.66;4156652;28;20259;-63
2022/03/08 03:42:47;;;;;;;15.53;12.50;;;;;;;-0.42;48.89;99260.75;4156998;28;20322;-64
2022/03/08 03:44:48;;;;;;;18.63;12.63;;;;;;;-0.24;49.08;99251.69;4156654;28;20319;-64
2022/03/08 03:46:50;;;;;;;15.50;11.90;;;;;;;-0.30;49.28;99246.88;4157216;28;20930;-64
2022/03/08 03:48:52;;;;;;;14.90;12.10;;;;;;;-0.59;49.38;99260.06;4157566;28;20243;-64
2022/03/08 03:50:54;;;;;;;14.80;11.57;;;;;;;-0.47;49.63;99247.16;4155244;28;20569;-64
2022/03/08 03:52:55;;;;;;;16.80;11.87;;;;;;;-0.77;49.76;99256.88;4156960;28;20686;-64
2022/03/08 03:54:57;;;;;;;16.43;12.03;;;;;;;-1.18;50.74;99275.16;4157151;28;20706;-64
2022/03/08 03:56:59;;;;;;;14.57;11.87;;;;;;;-0.88;50.54;99240.25;4156094;28;20330;-64
2022/03/08 03:59:00;;;;;;;15.23;12.33;;;;;;;-0.58;49.76;99240.03;4157259;28;20430;-64
2022/03/08 04:01:02;;;;;;;15.03;11.53;;;;;;;-0.57;50.12;99241.69;4153624;28;20685;-64
2022/03/08 04:03:04;;;;;;;16.23;11.87;;;;;;;-0.77;50.37;99243.84;4154719;28;20235;-64
2022/03/08 04:05:07;;;;;;;13.30;10.97;;;;;;;-1.31;50.92;99254.19;4156888;28;20240;-63
2022/03/08 04:07:09;;;;;;;14.67;11.80;;;;;;;-0.71;50.17;99235.59;4154971;28;20243;-64
2022/03/08 04:09:13;;;;;;;14.80;12.47;;;;;;;-0.61;50.28;99235.00;4157415;28;20316;-64
2022/03/08 04:11:14;;;;;;;18.57;12.83;;;;;;;-0.76;50.37;99245.50;4159709;28;20248;-64
2022/03/08 04:13:16;;;;;;;15.83;11.93;;;;;;;-0.95;50.06;99261.50;4160068;28;20265;-64
2022/03/08 04:15:18;;;;;;;16.30;12.87;;;;;;;-0.69;49.95;99245.94;4159143;28;20684;-64
2022/03/08 04:17:20;;;;;;;13.80;11.23;;;;;;;-0.91;50.22;99255.13;4160238;28;20758;-64
2022/03/08 04:19:22;;;;;;;13.50;11.47;;;;;;;-0.75;50.12;99254.16;4159734;28;20283;-64
2022/03/08 04:21:23;;;;;;;15.23;11.37;;;;;;;-0.63;50.41;99232.50;4157702;28;20235;-64
2022/03/08 04:23:25;;;;;;;14.47;11.47;;;;;;;-0.82;49.89;99256.34;4158185;28;20661;-65
2022/03/08 04:25:27;;;;;;;14.60;12.13;;;;;;;-0.65;49.86;99250.03;4158957;28;20318;-64
2022/03/08 04:27:28;;;;;;;15.87;12.10;;;;;;;-0.49;49.52;99236.81;4156652;28;20262;-63
2022/03/08 04:29:31;;;;;;;19.23;12.63;;;;;;;-0.63;49.62;99260.34;4159707;28;20235;-64
2022/03/08 04:31:32;;;;;;;14.57;12.17;;;;;;;-0.72;49.64;99259.19;4159408;28;20865;-64
2022/03/08 04:33:34;;;;;;;15.57;11.50;;;;;;;-0.65;49.71;99257.00;4158641;28;20330;-63
2022/03/08 04:35:36;;;;;;;17.47;12.07;;;;;;;-1.27;50.60;99272.19;4159382;28;20259;-66
2022/03/08 04:37:38;;;;;;;13.43;11.10;;;;;;;-1.03;50.00;99252.50;4159851;28;20309;-63
2022/03/08 04:39:40;;;;;;;16.43;11.57;;;;;;;-1.14;51.24;99240.09;4158952;28;20240;-64
2022/03/08 04:41:41;;;;;;;15.53;12.03;;;;;;;-0.83;50.13;99240.78;4159816;28;20252;-63
2022/03/08 04:43:43;;;;;;;16.77;11.87;;;;;;;-1.10;50.80;99252.03;4158074;28;20236;-64
2022/03/08 04:45:45;;;;;;;15.40;11.93;;;;;;;-0.73;50.09;99234.84;4159010;28;20270;-64
2022/03/08 04:47:47;;;;;;;15.43;11.63;;;;;;;-0.52;49.50;99227.38;4159528;28;20393;-64
2022/03/08 04:49:48;;;;;;;15.00;11.53;;;;;;;-0.90;50.16;99245.56;4160198;28;20259;-63
2022/03/08 04:51:50;;;;;;;16.90;11.87;;;;;;;-0.96;50.36;99236.31;4159328;28;20278;-63
2022/03/08 04:53:52;;;;;;;16.73;11.30;;;;;;;-1.50;51.42;99249.28;4159367;28;20255;-63
2022/03/08 04:55:54;;;;;;;15.27;11.47;;;;;;;-0.96;50.28;99232.88;4159383;28;20864;-63
2022/03/08 04:57:56;;;;;;;14.70;11.10;;;;;;;-1.03;50.19;99239.44;4159238;28;20250;-64
2022/03/08 04:59:58;;;;;;;14.33;10.87;;;;;;;-1.08;50.09;99255.38;4156660;28;20342;-63
2022/03/08 05:01:59;;;;;;;15.43;11.40;;;;;;;-0.77;49.75;99246.44;4158299;28;20326;-63
2022/03/08 05:04:01;;;;;;;15.33;11.37;;;;;;;-0.99;50.05;99262.63;4159167;28;20227;-63
2022/03/08 05:06:05;;;;;;;16.93;11.63;;;;;;;-0.58;49.12;99245.25;4158642;28;20407;-63
2022/03/08 05:08:06;;;;;;;14.93;11.33;;;;;;;-1.04;50.26;99262.06;4159347;28;20236;-63
2022/03/08 05:10:11;;;;;;;15.57;11.17;;;;;;;-0.68;49.77;99247.63;4159126;28;20278;-63
2022/03/08 05:12:12;;;;;;;13.77;11.20;;;;;;;-0.66;49.73;99250.97;4158748;28;20271;-63
2022/03/08 05:14:14;;;;;;;14.10;11.23;;;;;;;-0.97;50.71;99252.94;4159591;28;20238;-63
2022/03/08 05:16:15;;;;;;;17.20;12.10;;;;;;;-0.40;49.65;99241.44;4159253;28;20270;-63
2022/03/08 05:18:18;;;;;;;15.17;11.70;;;;;;;-0.78;50.30;99256.97;4158850;28;20238;-63
2022/03/08 05:20:19;;;;;;;15.67;11.73;;;;;;;-0.88;50.62;99259.34;4159198;28;20695;-63
2022/03/08 05:22:22;;;;;;;13.57;11.23;;;;;;;-0.38;49.41;99241.31;4159228;28;20684;-64
2022/03/08 05:24:23;;;;;;;12.17;10.87;;;;;;;-0.73;49.49;99258.34;4158161;28;20720;-63
2022/03/08 05:26:25;;;;;;;16.43;12.20;;;;;;;-0.43;49.41;99236.41;4159046;28;20313;-63
2022/03/08 05:28:26;;;;;;;13.30;10.77;;;;;;;-0.83;50.09;99248.63;4159139;28;20246;-63
2022/03/08 05:30:28;;;;;;;14.03;11.53;;;;;;;-0.48;49.21;99238.50;4158282;28;20270;-63
2022/03/08 05:32:30;;;;;;;14.70;10.90;;;;;;;-1.02;50.24;99247.16;4159307;28;20683;-62
2022/03/08 05:34:32;;;;;;;14.73;11.37;;;;;;;-1.06;50.48;99253.50;4158607;28;20285;-63
2022/03/08 05:36:34;;;;;;;15.03;11.90;;;;;;;-1.09;51.15;99240.66;4158477;28;20695;-63
2022/03/08 05:38:35;;;;;;;15.10;11.20;;;;;;;-1.12;50.79;99249.53;4158909;28;20232;-63
2022/03/08 05:40:39;;;;;;;14.57;11.70;;;;;;;-0.96;50.46;99244.16;4158997;28;20250;-63
2022/03/08 05:42:43;;;;;;;15.20;10.43;;;;;;;-0.91;50.49;99236.88;4158696;28;20675;-63
2022/03/08 05:44:45;;;;;;;14.10;11.77;;;;;;;-0.93;50.52;99241.34;4158779;28;20240;-63
2022/03/08 05:46:47;;;;;;;13.47;11.33;;;;;;;-1.63;50.79;99275.25;4158649;28;20264;-63
2022/03/08 05:48:48;;;;;;;14.40;11.77;;;;;;;-1.23;51.32;99235.47;4158292;28;20295;-63
2022/03/08 05:50:50;;;;;;;13.50;11.40;;;;;;;-1.09;51.08;99232.81;4159142;28;20548;-62
2022/03/08 05:52:51;;;;;;;13.80;11.50;;;;;;;-0.94;50.84;99225.78;4158839;28;20243;-63
2022/03/08 05:54:53;;;;;;;19.27;11.07;;;;;;;-1.02;50.85;99234.13;4158256;28;20271;-63
2022/03/08 05:56:55;;;;;;;16.10;11.23;;;;;;;-0.99;50.64;99239.13;4158586;28;20303;-63
2022/03/08 05:58:56;;;;;;;15.60;11.87;;;;;;;-1.14;51.49;99246.19;4158824;28;20262;-62
2022/03/08 06:00:58;;;;;;;15.37;12.03;;;;;;;-0.81;50.49;99242.34;4151372;28;20281;-63
2022/03/08 06:03:00;;;;;;;15.07;11.63;;;;;;;-0.52;50.07;99229.16;4155091;28;20361;-63
2022/03/08 06:05:02;;;;;;;15.60;11.40;;;;;;;-1.08;51.34;99245.78;4150783;28;20297;-63
2022/03/08 06:07:04;;;;;;;14.57;10.90;;;;;;;-0.72;50.22;99236.53;4158120;28;20275;-63
2022/03/08 06:09:05;;;;;;;13.80;10.17;;;;;;;-0.32;49.59;99233.06;4158715;28;20266;-62
2022/03/08 06:11:07;;;;;;;14.87;11.90;;;;;;;-1.10;50.00;99276.34;4158356;28;20707;-63
2022/03/08 06:13:09;;;;;;;14.40;11.37;;;;;;;-0.69;50.15;99247.72;4157671;28;20231;-63
2022/03/08 06:15:11;;;;;;;14.77;11.17;;;;;;;-0.38;49.73;99241.31;4158501;28;20255;-63
2022/03/08 06:17:13;;;;;;;13.30;10.90;;;;;;;-0.59;50.17;99260.06;4158948;28;20704;-63
2022/03/08 06:19:14;;;;;;;15.87;12.07;;;;;;;-0.79;50.36;99265.75;4158033;28;20339;-64
2022/03/08 06:21:16;;;;;;;15.93;12.73;;;;;;;-1.11;50.97;99282.50;4155218;28;20259;-63
2022/03/08 06:23:18;;;;;;;15.73;11.47;;;;;;;-1.17;51.05;99282.88;4157614;28;20232;-63
2022/03/08 06:25:19;;;;;;;12.47;10.63;;;;;;;-0.82;50.91;99258.09;4157617;28;20338;-63
2022/03/08 06:27:21;;;;;;;12.57;11.27;;;;;;;-0.79;50.23;99273.56;4156743;28;20269;-63
2022/03/08 06:29:23;;;;;;;16.40;11.10;;;;;;;-0.87;50.61;99273.22;4157945;28;20239;-63
2022/03/08 06:31:24;;;;;;;14.93;11.23;;;;;;;-0.57;50.00;99267.81;4156176;28;20839;-63
2022/03/08 06:33:26;;;;;;;13.80;11.37;;;;;;;-0.44;50.03;99257.41;4158074;28;20281;-63
2022/03/08 06:35:28;;;;;;;13.70;11.30;;;;;;;-0.89;50.59;99283.75;4158336;28;20640;-63
2022/03/08 06:37:29;;;;;;;14.57;11.70;;;;;;;-0.53;50.60;99261.47;4157790;28;20258;-62
2022/03/08 06:39:31;;;;;;;13.77;11.20;;;;;;;-0.29;49.54;99261.63;4158256;28;20317;-63
2022/03/08 06:41:33;;;;;;;14.07;11.23;;;;;;;-0.54;49.74;99286.72;4158196;28;20309;-63
2022/03/08 06:43:34;;;;;;;12.83;10.40;;;;;;;-0.80;50.46;99287.56;4157119;28;20590;-63
2022/03/08 06:45:36;;;;;;;17.07;11.67;;;;;;;-0.27;49.89;99262.34;4158092;28;20228;-63
2022/03/08 06:47:38;;;;;;;16.60;10.57;;;;;;;-0.07;49.13;99274.09;4158531;28;20671;-63
2022/03/08 06:49:41;;;;;;;13.20;10.83;;;;;;;-0.63;50.37;99303.00;4146705;28;20270;-64
2022/03/08 06:51:43;;;;;;;13.97;11.10;;;;;;;-0.40;49.61;99298.06;4149734;28;20256;-64
2022/03/08 06:53:51;;;;;;;13.73;10.33;;;;;;;-0.07;49.24;99271.47;4158205;28;20451;-63
2022/03/08 06:55:52;;;;;;;14.17;10.57;;;;;;;-0.09;48.95;99288.19;4157063;28;20240;-64
2022/03/08 06:57:54;;;;;;;12.90;10.47;;;;;;;-0.34;49.30;99308.94;4158152;28;20272;-64
2022/03/08 06:59:56;;;;;;;12.93;9.90;;;;;;;0.19;48.27;99301.13;4155135;28;20240;-63
2022/03/08 07:01:57;;;;;;;13.33;10.87;;;;;;;0.20;48.63;99299.31;4153082;28;20323;-63
2022/03/08 07:03:59;;;;;;;14.47;11.80;;;;;;;-0.19;48.80;99320.16;4157536;28;20650;-63
2022/03/08 07:06:01;;;;;;;12.10;10.50;;;;;;;0.26;48.94;99292.84;4157762;28;20256;-63
2022/03/08 07:08:05;;;;;;;14.40;11.47;;;;;;;0.45;48.45;99303.72;4157189;28;20242;-63
2022/03/08 07:10:07;;;;;;;12.43;10.40;;;;;;;0.51;48.17;99300.66;4157685;28;20237;-63
2022/03/08 07:12:10;;;;;;;15.93;10.17;;;;;;;-0.27;48.96;99339.91;4158283;28;20515;-64
2022/03/08 07:14:15;;;;;;;11.83;10.07;;;;;;;-0.29;49.16;99321.72;4154905;28;20332;-63
2022/03/08 07:16:18;;;;;;;14.20;9.80;;;;;;;-0.89;50.60;99335.97;4157333;28;20232;-64
2022/03/08 07:18:20;;;;;;;12.47;9.30;;;;;;;-0.40;49.80;99298.06;4157472;28;20236;-63
2022/03/08 07:20:22;;;;;;;14.90;10.00;;;;;;;-0.35;48.91;99328.19;4156876;28;20272;-63
2022/03/08 07:22:23;;;;;;;11.87;9.63;;;;;;;-0.93;50.74;99311.00;4157921;28;20714;-64
2022/03/08 07:24:25;;;;;;;13.30;9.83;;;;;;;-0.79;50.63;99312.72;4157295;28;20283;-63
2022/03/08 07:26:26;;;;;;;13.53;10.10;;;;;;;-0.45;50.38;99285.28;4157049;28;20256;-63
2022/03/08 07:28:28;;;;;;;12.50;9.87;;;;;;;-0.66;49.37;99304.97;4157786;28;20244;-64
2022/03/08 07:30:34;;;;;;;13.23;10.40;;;;;;;-0.48;49.37;99302.94;4157752;28;20274;-62
2022/03/08 07:32:36;;;;;;;12.33;10.33;;;;;;;-0.66;49.67;99290.13;4157128;28;20264;-64
2022/03/08 07:34:38;;;;;;;14.23;9.90;;;;;;;-0.99;50.37;99299.16;4157569;28;20577;-64
2022/03/08 07:36:39;;;;;;;11.57;9.83;;;;;;;-0.99;50.77;99298.31;4157957;28;22246;-62
2022/03/08 07:38:41;;;;;;;12.70;10.20;;;;;;;-0.11;48.89;99262.19;4161917;28;20263;-62
2022/03/08 07:40:43;;;;;;;11.57;8.80;;;;;;;-0.71;49.59;99294.81;4157918;28;20264;-62
2022/03/08 07:42:45;;;;;;;13.97;9.90;;;;;;;-0.44;48.95;99300.03;4157401;28;21108;-62
2022/03/08 07:44:46;;;;;;;14.30;9.10;;;;;;;-0.50;49.47;99274.28;4158951;28;20503;-61
2022/03/08 07:46:48;;;;;;;12.07;10.77;;;;;;;-0.09;48.43;99280.34;4160327;28;20302;-64
2022/03/08 07:48:50;;;;;;;11.97;9.60;;;;;;;0.17;47.88;99283.84;4159141;28;20327;-65
2022/03/08 07:51:11;;;;;;;11.23;9.27;;;;;;;-0.83;49.31;99317.31;4156395;28;20228;-65
2022/03/08 07:53:13;;;;;;;11.10;9.07;;;;;;;0.09;48.36;99289.56;4160361;28;20709;-62
2022/03/08 07:55:15;;;;;;;11.70;9.20;;;;;;;-0.21;48.85;99303.75;4161298;28;20619;-64
2022/03/08 07:57:16;;;;;;;12.43;9.60;;;;;;;0.43;47.57;99274.22;4159958;28;20676;-64
2022/03/08 07:59:18;;;;;;;10.70;9.27;;;;;;;0.66;46.90;99295.34;4160735;28;20329;-62
2022/03/08 08:01:20;;;;;;;11.93;8.97;;;;;;;0.30;48.26;99286.47;4153544;28;20265;-62
2022/03/08 08:03:22;;;;;;;10.83;9.27;;;;;;;0.57;47.83;99275.88;4155702;28;20378;-62
2022/03/08 08:05:24;;;;;;;13.30;9.00;;;;;;;-0.32;48.52;99332.34;4160515;28;20304;-62
2022/03/08 08:07:25;;;;;;;11.80;9.50;;;;;;;0.11;47.83;99315.63;4158047;28;20706;-63
2022/03/08 08:09:27;;;;;;;12.90;9.00;;;;;;;-0.28;48.91;99307.72;4159138;28;20443;-63
2022/03/08 08:11:28;;;;;;;10.50;9.17;;;;;;;0.55;48.21;99270.75;4160034;28;20247;-63
2022/03/08 08:13:30;;;;;;;11.40;9.43;;;;;;;0.71;48.02;99272.28;4160371;28;20269;-63
2022/03/08 08:15:32;;;;;;;12.00;8.47;;;;;;;0.44;48.32;99288.97;4157163;28;20252;-63
2022/03/08 08:17:34;;;;;;;12.47;9.83;;;;;;;0.32;48.21;99295.03;4159683;28;20228;-63
2022/03/08 08:19:35;;;;;;;10.27;8.90;;;;;;;-0.13;49.04;99316.31;4157911;28;20261;-63
2022/03/08 08:21:37;;;;;;;12.50;9.83;;;;;;;0.77;47.61;99277.13;4155860;28;20258;-63
2022/03/08 08:23:39;;;;;;;12.27;9.53;;;;;;;0.87;47.58;99285.13;4160091;28;20709;-64
2022/03/08 08:25:40;;;;;;;13.40;8.60;;;;;;;1.41;46.90;99276.94;4158668;28;20260;-63
2022/03/08 08:27:42;;;;;;;13.77;9.37;;;;;;;1.06;46.63;99327.44;4159420;28;20266;-63
2022/03/08 08:29:44;;;;;;;12.17;9.33;;;;;;;0.83;47.10;99325.56;4159050;28;20286;-63
2022/03/08 08:31:45;;;;;;;12.50;8.97;;;;;;;1.18;47.08;99322.28;4160076;28;20262;-65
2022/03/08 08:33:47;;;;;;;13.53;8.50;;;;;;;0.32;47.99;99322.03;4159487;28;20237;-63
2022/03/08 08:35:49;;;;;;;11.77;8.70;;;;;;;0.80;47.04;99337.06;4160115;28;20312;-64
2022/03/08 08:37:50;;;;;;;10.60;8.03;;;;;;;1.46;46.83;99287.91;4159990;28;20270;-64
2022/03/08 08:39:52;;;;;;;11.73;9.07;;;;;;;1.50;46.55;99317.34;4159603;28;20626;-63
2022/03/08 08:41:54;;;;;;;11.20;8.77;;;;;;;1.48;45.93;99330.56;4159883;28;20255;-64
2022/03/08 08:43:56;;;;;;;12.03;8.73;;;;;;;1.51;47.01;99301.53;4160142;28;20238;-63
2022/03/08 08:45:58;;;;;;;11.00;9.13;;;;;;;2.31;45.14;99341.97;4159112;28;20585;-65
2022/03/08 08:47:59;;;;;;;13.57;9.67;;;;;;;2.05;46.18;99305.41;4160230;28;20801;-64
2022/03/08 08:50:02;;;;;;;12.37;8.20;;;;;;;2.10;45.29;99327.81;4152229;28;20270;-64
2022/03/08 08:52:04;;;;;;;11.77;9.03;;;;;;;2.04;45.93;99302.91;4159333;28;20234;-64
2022/03/08 08:54:06;;;;;;;11.23;8.77;;;;;;;3.01;44.36;99317.31;4159740;28;20267;-64
2022/03/08 08:56:07;;;;;;;11.77;9.00;;;;;;;2.41;45.23;99300.94;4159175;28;20682;-64
2022/03/08 08:58:09;;;;;;;10.13;8.23;;;;;;;2.83;44.63;99293.31;4159228;28;20708;-64
2022/03/08 09:00:11;;;;;;;11.37;8.83;;;;;;;2.58;45.25;99297.00;4156568;28;20705;-64
2022/03/08 09:02:13;;;;;;;12.30;9.17;;;;;;;3.11;43.64;99321.81;4152396;28;20271;-65
2022/03/08 09:04:15;;;;;;;10.50;8.53;;;;;;;3.29;42.87;99324.78;4159156;28;20331;-64
2022/03/08 09:06:16;;;;;;;11.00;9.70;;;;;;;2.87;45.37;99304.41;4159661;28;20735;-64
2022/03/08 09:08:24;;;;;;;11.87;8.40;;;;;;;2.78;44.08;99347.97;4159753;28;20259;-64
2022/03/08 09:10:26;;;;;;;12.87;8.10;;;;;;;3.82;42.87;99311.75;4156331;28;20636;-65
2022/03/08 09:12:28;;;;;;;13.77;9.00;;;;;;;3.70;42.58;99324.13;4159010;28;20242;-64
2022/03/08 09:14:30;;;;;;;10.30;8.60;;;;;;;4.08;43.67;99308.75;4159115;28;20282;-65
2022/03/08 09:16:31;;;;;;;10.97;8.17;;;;;;;4.09;43.27;99295.47;4156647;28;20310;-64
2022/03/08 09:18:33;;;;;;;11.33;8.77;;;;;;;3.80;43.37;99323.34;4159542;28;20225;-65
2022/03/08 09:20:35;;;;;;;9.77;8.87;;;;;;;3.85;43.13;99310.66;4159327;28;20251;-64
2022/03/08 09:22:37;;;;;;;13.40;8.73;;;;;;;3.33;43.81;99310.44;4158950;28;20259;-64
2022/03/08 09:24:39;;;;;;;10.47;8.73;;;;;;;3.91;42.98;99307.53;4156467;28;20248;-64